createdAt,value
2023-02-14T00:01:40.278Z,6.24
2023-02-14T00:04:07.910Z,6.21
2023-02-14T00:06:35.514Z,6.19
2023-02-14T00:09:02.413Z,6.14
2023-02-14T00:11:30.021Z,6.12
2023-02-14T00:14:16.164Z,6.13
2023-02-14T00:16:43.813Z,6.12
2023-02-14T00:19:11.742Z,6.13
2023-02-14T00:21:38.894Z,6.12
2023-02-14T00:24:07.345Z,6.11
2023-02-14T00:26:34.853Z,6.12
2023-02-14T00:29:02.165Z,6.10
2023-02-14T00:31:28.912Z,6.11
2023-02-14T00:33:55.666Z,6.14
2023-02-14T00:36:22.718Z,6.13
2023-02-14T00:38:49.436Z,6.07
2023-02-14T00:41:19.281Z,6.06
2023-02-14T00:43:50.580Z,6.07
2023-02-14T00:46:18.015Z,6.13
2023-02-14T00:48:45.853Z,6.12
2023-02-14T00:51:13.235Z,6.12
2023-02-14T00:53:40.128Z,6.10
2023-02-14T00:56:07.585Z,6.11
2023-02-14T00:58:34.610Z,6.13
2023-02-14T01:01:01.688Z,6.11
2023-02-14T01:03:28.806Z,6.09
2023-02-14T01:05:55.387Z,6.11
2023-02-14T01:08:22.181Z,6.11
2023-02-14T01:10:48.834Z,6.07
2023-02-14T01:13:15.877Z,6.05
2023-02-14T01:15:47.120Z,6.03
2023-02-14T01:18:14.646Z,5.99
2023-02-14T01:20:41.793Z,6.00
2023-02-14T01:23:08.568Z,5.99
2023-02-14T01:25:36.977Z,5.98
2023-02-14T01:28:04.546Z,5.90
2023-02-14T01:30:31.680Z,5.90
2023-02-14T01:32:58.693Z,5.87
2023-02-14T01:35:25.340Z,5.85
2023-02-14T01:37:52.310Z,5.84
2023-02-14T01:40:19.338Z,5.82
2023-02-14T01:42:46.055Z,5.78
2023-02-14T01:45:18.339Z,5.79
2023-02-14T01:47:46.926Z,5.75
2023-02-14T01:50:18.272Z,5.69
2023-02-14T01:52:50.997Z,5.58
2023-02-14T01:55:29.218Z,5.55
2023-02-14T01:57:59.697Z,5.54
2023-02-14T02:00:45.785Z,5.55
2023-02-14T02:03:13.807Z,5.50
2023-02-14T02:05:44.055Z,5.48
2023-02-14T02:08:11.855Z,5.49
2023-02-14T02:10:39.084Z,5.51
2023-02-14T02:13:09.231Z,5.51
2023-02-14T02:15:42.130Z,5.49
2023-02-14T02:18:13.941Z,5.52
2023-02-14T02:20:46.007Z,5.48
2023-02-14T02:23:31.751Z,5.48
2023-02-14T02:26:04.774Z,5.46
2023-02-14T02:28:50.039Z,5.45
2023-02-14T02:31:29.227Z,5.44
2023-02-14T02:33:58.995Z,5.42
2023-02-14T02:36:25.906Z,5.42
2023-02-14T02:38:56.180Z,5.42
2023-02-14T02:41:26.643Z,5.39
2023-02-14T02:43:57.002Z,5.33
2023-02-14T02:46:43.017Z,5.33
2023-02-14T02:49:36.997Z,5.35
2023-02-14T02:52:26.319Z,5.32
2023-02-14T02:54:58.783Z,5.31
2023-02-14T02:57:29.509Z,5.33
2023-02-14T02:59:57.474Z,5.31
2023-02-14T03:02:24.524Z,5.31
2023-02-14T03:04:54.112Z,5.27
2023-02-14T03:07:35.320Z,5.25
2023-02-14T03:10:07.677Z,5.25
2023-02-14T03:12:37.440Z,5.24
2023-02-14T03:15:23.628Z,5.24
2023-02-14T03:17:59.855Z,5.24
2023-02-14T03:20:56.251Z,5.19
2023-02-14T03:23:28.976Z,5.17
2023-02-14T03:26:07.791Z,5.13
2023-02-14T03:28:42.967Z,5.06
2023-02-14T03:31:10.193Z,5.07
2023-02-14T03:33:58.733Z,5.05
2023-02-14T03:36:35.064Z,5.03
2023-02-14T03:39:11.456Z,5.03
2023-02-14T03:41:43.836Z,5.05
2023-02-14T03:44:11.460Z,5.05
2023-02-14T03:46:46.545Z,5.01
2023-02-14T03:49:17.557Z,5.00
2023-02-14T03:51:47.177Z,4.98
2023-02-14T03:54:15.218Z,4.95
2023-02-14T03:56:47.872Z,4.94
2023-02-14T03:59:17.683Z,4.88
2023-02-14T04:01:48.149Z,4.86
2023-02-14T04:04:17.848Z,4.88
2023-02-14T04:06:45.420Z,4.86
2023-02-14T04:09:12.365Z,4.91
2023-02-14T04:11:39.407Z,4.87
2023-02-14T04:14:06.140Z,4.82
2023-02-14T04:16:56.228Z,4.82
2023-02-14T04:19:23.429Z,4.85
2023-02-14T04:21:51.629Z,4.84
2023-02-14T04:24:18.992Z,4.84
2023-02-14T04:27:05.650Z,4.83
2023-02-14T04:29:32.236Z,4.82
2023-02-14T04:31:58.883Z,4.82
2023-02-14T04:34:25.668Z,4.76
2023-02-14T04:36:52.379Z,4.76
2023-02-14T04:39:19.264Z,4.81
2023-02-14T04:41:46.245Z,4.77
2023-02-14T04:44:12.813Z,4.77
2023-02-14T04:46:39.479Z,4.77
2023-02-14T04:49:06.158Z,4.79
2023-02-14T04:51:32.899Z,4.79
2023-02-14T04:53:59.655Z,4.79
2023-02-14T04:56:27.102Z,4.80
2023-02-14T04:58:54.693Z,4.82
2023-02-14T05:01:21.566Z,4.82
2023-02-14T05:03:48.216Z,4.85
2023-02-14T05:06:15.329Z,4.84
2023-02-14T05:08:42.107Z,4.84
2023-02-14T05:11:09.068Z,4.86
2023-02-14T05:13:35.778Z,4.82
2023-02-14T05:16:02.925Z,4.81
2023-02-14T05:18:29.992Z,4.82
2023-02-14T05:20:56.846Z,4.80
2023-02-14T05:23:24.235Z,4.81
2023-02-14T05:25:51.990Z,4.78
2023-02-14T05:28:19.562Z,4.78
2023-02-14T05:30:47.960Z,4.78
2023-02-14T05:33:15.162Z,4.79
2023-02-14T05:35:42.092Z,4.74
2023-02-14T05:38:09.083Z,4.75
2023-02-14T05:40:35.669Z,4.77
2023-02-14T05:43:02.700Z,4.77
2023-02-14T05:45:29.283Z,4.76
2023-02-14T05:47:55.799Z,4.76
2023-02-14T05:50:22.607Z,4.74
2023-02-14T05:52:49.586Z,4.74
2023-02-14T05:55:16.269Z,4.69
2023-02-14T05:57:43.778Z,4.71
2023-02-14T06:00:10.692Z,4.70
2023-02-14T06:02:37.678Z,4.75
2023-02-14T06:05:04.955Z,4.76
2023-02-14T06:07:31.580Z,4.77
2023-02-14T06:09:58.679Z,4.75
2023-02-14T06:12:25.616Z,4.71
2023-02-14T06:14:52.535Z,4.69
2023-02-14T06:17:19.510Z,4.67
2023-02-14T06:19:46.248Z,4.64
2023-02-14T06:22:12.988Z,4.68
2023-02-14T06:24:39.946Z,4.65
2023-02-14T06:27:06.776Z,4.62
2023-02-14T06:29:33.432Z,4.66
2023-02-14T06:32:05.769Z,4.64
2023-02-14T06:34:33.646Z,4.70
2023-02-14T06:37:00.681Z,4.64
2023-02-14T06:39:27.948Z,4.63
2023-02-14T06:41:54.540Z,4.64
2023-02-14T06:44:21.315Z,4.60
2023-02-14T06:46:48.312Z,4.56
2023-02-14T06:49:15.260Z,4.57
2023-02-14T06:51:42.014Z,4.55
2023-02-14T06:54:09.031Z,4.57
2023-02-14T06:56:35.932Z,4.57
2023-02-14T06:59:03.038Z,4.52
2023-02-14T07:01:29.972Z,4.50
2023-02-14T07:03:56.553Z,4.50
2023-02-14T07:06:23.368Z,4.51
2023-02-14T07:08:50.502Z,4.52
2023-02-14T07:11:17.954Z,4.53
2023-02-14T07:13:44.937Z,4.49
2023-02-14T07:16:11.863Z,4.54
2023-02-14T07:18:39.096Z,4.55
2023-02-14T07:21:05.654Z,4.56
2023-02-14T07:23:33.023Z,4.57
2023-02-14T07:26:00.137Z,4.63
2023-02-14T07:28:27.387Z,4.64
2023-02-14T07:30:54.124Z,4.64
2023-02-14T07:33:20.890Z,4.65
2023-02-14T07:35:48.672Z,4.70
2023-02-14T07:38:15.439Z,4.70
2023-02-14T07:40:42.347Z,4.73
2023-02-14T07:43:09.285Z,4.75
2023-02-14T07:45:35.847Z,4.80
2023-02-14T07:48:02.715Z,4.80
2023-02-14T07:50:29.842Z,4.82
2023-02-14T07:52:56.873Z,4.84
2023-02-14T07:55:25.157Z,4.86
2023-02-14T07:57:51.977Z,4.90
2023-02-14T08:00:18.979Z,4.90
2023-02-14T08:02:46.155Z,4.94
2023-02-14T08:05:14.763Z,5.00
2023-02-14T08:07:43.060Z,5.04
2023-02-14T08:10:12.858Z,5.12
2023-02-14T08:12:58.778Z,5.16
2023-02-14T08:15:49.145Z,5.21
2023-02-14T08:18:17.483Z,5.26
2023-02-14T08:20:45.111Z,5.31
2023-02-14T08:23:12.317Z,5.35
2023-02-14T08:25:39.727Z,5.40
2023-02-14T08:28:06.889Z,5.45
2023-02-14T08:30:36.237Z,5.53
2023-02-14T08:33:03.252Z,5.62
2023-02-14T08:35:30.141Z,5.74
2023-02-14T08:37:56.949Z,5.80
2023-02-14T08:40:24.161Z,5.85
2023-02-14T08:42:50.915Z,5.87
2023-02-14T08:45:18.185Z,5.97
2023-02-14T08:47:45.705Z,6.00
2023-02-14T08:50:14.644Z,6.10
2023-02-14T08:52:43.763Z,6.15
2023-02-14T08:55:11.687Z,6.22
2023-02-14T08:57:38.248Z,6.27
2023-02-14T09:00:06.327Z,6.33
2023-02-14T09:02:33.285Z,6.42
2023-02-14T09:05:00.907Z,6.45
2023-02-14T09:07:28.355Z,6.56
2023-02-14T09:09:54.961Z,6.64
2023-02-14T09:12:22.172Z,6.76
2023-02-14T09:14:49.359Z,6.80
2023-02-14T09:17:16.603Z,6.83
2023-02-14T09:19:43.662Z,6.89
2023-02-14T09:22:11.245Z,6.93
2023-02-14T09:24:39.257Z,7.00
2023-02-14T09:27:06.179Z,7.00
2023-02-14T09:29:32.871Z,7.10
2023-02-14T09:32:00.380Z,7.16
2023-02-14T09:34:28.543Z,7.18
2023-02-14T09:37:14.083Z,7.24
2023-02-14T09:39:40.896Z,7.35
2023-02-14T09:42:27.188Z,7.42
2023-02-14T09:44:54.071Z,7.51
2023-02-14T09:47:20.818Z,7.66
2023-02-14T09:49:48.963Z,7.66
2023-02-14T09:52:18.433Z,7.70
2023-02-14T09:54:48.920Z,7.77
2023-02-14T09:57:34.107Z,7.86
2023-02-14T10:00:23.149Z,8.06
2023-02-14T10:02:52.883Z,8.04
2023-02-14T10:05:24.590Z,8.08
2023-02-14T10:07:54.228Z,8.07
2023-02-14T10:10:39.657Z,8.08
2023-02-14T10:13:15.748Z,8.10
2023-02-14T10:15:48.493Z,8.20
2023-02-14T10:18:16.572Z,8.35
2023-02-14T10:20:45.142Z,8.39
2023-02-14T10:23:32.224Z,8.44
2023-02-14T10:26:04.296Z,8.50
2023-02-14T10:28:33.180Z,8.56
2023-02-14T10:31:12.221Z,8.59
2023-02-14T10:33:42.218Z,8.66
2023-02-14T10:36:18.493Z,8.79
2023-02-14T10:38:54.875Z,8.78
2023-02-14T10:41:22.465Z,8.95
2023-02-14T10:44:03.999Z,8.98
2023-02-14T10:46:34.795Z,8.98
2023-02-14T10:49:13.807Z,9.15
2023-02-14T10:51:40.723Z,9.11
2023-02-14T10:54:39.723Z,9.11
2023-02-14T10:57:25.038Z,9.20
2023-02-14T11:00:02.843Z,9.25
2023-02-14T11:02:32.472Z,9.27
2023-02-14T11:05:00.240Z,9.43
2023-02-14T11:07:27.388Z,9.43
2023-02-14T11:09:57.560Z,9.44
2023-02-14T11:12:40.946Z,9.49
2023-02-14T11:15:10.279Z,9.49
2023-02-14T11:17:37.949Z,9.56
2023-02-14T11:20:20.706Z,9.67
2023-02-14T11:22:47.406Z,9.59
2023-02-14T11:25:21.387Z,9.63
2023-02-14T11:27:50.981Z,9.84
2023-02-14T11:30:25.227Z,9.85
2023-02-14T11:32:55.161Z,9.87
2023-02-14T11:35:27.584Z,9.91
2023-02-14T11:37:56.242Z,9.99
2023-02-14T11:40:29.200Z,10.01
2023-02-14T11:43:13.347Z,10.00
2023-02-14T11:45:42.409Z,10.04
2023-02-14T11:48:38.719Z,10.05
2023-02-14T11:51:09.145Z,10.05
2023-02-14T11:53:39.742Z,10.14
2023-02-14T11:56:06.767Z,10.24
2023-02-14T11:58:39.051Z,10.22
2023-02-14T12:01:05.897Z,10.27
2023-02-14T12:03:46.597Z,10.29
2023-02-14T12:06:21.941Z,10.34
2023-02-14T12:08:49.239Z,10.41
2023-02-14T12:11:20.973Z,10.49
2023-02-14T12:13:56.052Z,10.45
2023-02-14T12:16:28.699Z,10.50
2023-02-14T12:19:17.583Z,10.52
2023-02-14T12:21:48.286Z,10.65
2023-02-14T12:24:18.764Z,10.58
2023-02-14T12:26:49.751Z,10.61
2023-02-14T12:29:20.974Z,10.63
2023-02-14T12:31:49.544Z,10.81
2023-02-14T12:34:18.856Z,10.79
2023-02-14T12:37:04.971Z,10.76
2023-02-14T12:39:50.646Z,10.87
2023-02-14T12:42:17.945Z,10.84
2023-02-14T12:44:50.877Z,10.94
2023-02-14T12:47:20.459Z,11.02
2023-02-14T12:50:10.854Z,11.06
2023-02-14T12:52:47.024Z,11.09
2023-02-14T12:55:32.834Z,11.10
2023-02-14T12:58:05.451Z,11.23
2023-02-14T13:00:34.890Z,11.09
2023-02-14T13:03:07.597Z,11.07
2023-02-14T13:05:45.467Z,11.12
2023-02-14T13:08:30.739Z,11.12
2023-02-14T13:10:57.961Z,11.19
2023-02-14T13:13:45.677Z,11.26
2023-02-14T13:16:18.586Z,11.44
2023-02-14T13:19:00.669Z,11.45
2023-02-14T13:21:30.742Z,11.43
2023-02-14T13:24:18.393Z,11.43
2023-02-14T13:26:48.560Z,11.57
2023-02-14T13:29:17.799Z,11.74
2023-02-14T13:31:45.460Z,11.81
2023-02-14T13:34:24.329Z,11.84
2023-02-14T13:36:51.601Z,11.82
2023-02-14T13:39:40.163Z,11.95
2023-02-14T13:42:07.331Z,11.92
2023-02-14T13:44:41.873Z,11.92
2023-02-14T13:47:16.548Z,12.03
2023-02-14T13:49:49.168Z,12.03
2023-02-14T13:52:36.522Z,12.05
2023-02-14T13:55:06.170Z,12.15
2023-02-14T13:57:37.432Z,12.19
2023-02-14T14:00:19.839Z,12.28
2023-02-14T14:02:47.830Z,12.39
2023-02-14T14:05:29.764Z,12.53
2023-02-14T14:08:16.705Z,12.72
2023-02-14T14:10:45.378Z,12.78
2023-02-14T14:13:31.243Z,12.92
2023-02-14T14:16:17.026Z,13.06
2023-02-14T14:18:44.193Z,13.19
2023-02-14T14:21:15.379Z,13.25
2023-02-14T14:23:42.552Z,13.33
2023-02-14T14:26:27.988Z,13.43
2023-02-14T14:28:55.403Z,13.54
2023-02-14T14:31:22.481Z,13.62
2023-02-14T14:33:57.377Z,13.86
2023-02-14T14:36:24.473Z,14.13
2023-02-14T14:38:53.497Z,14.05
2023-02-14T14:41:27.444Z,14.19
2023-02-14T14:43:54.991Z,14.01
2023-02-14T14:46:22.482Z,14.06
2023-02-14T14:48:51.121Z,14.00
2023-02-14T14:51:22.931Z,14.09
2023-02-14T14:53:56.585Z,14.16
2023-02-14T14:56:25.604Z,14.38
2023-02-14T14:58:52.761Z,14.60
2023-02-14T15:01:30.429Z,14.75
2023-02-14T15:04:12.315Z,14.84
2023-02-14T15:06:39.358Z,14.88
2023-02-14T15:09:13.666Z,15.06
2023-02-14T15:12:00.210Z,15.32
2023-02-14T15:14:28.936Z,15.36
2023-02-14T15:17:05.490Z,15.75
2023-02-14T15:19:41.702Z,16.39
2023-02-14T15:22:21.036Z,16.42
2023-02-14T15:24:48.819Z,16.46
2023-02-14T15:27:18.149Z,16.65
2023-02-14T15:29:55.499Z,16.99
2023-02-14T15:32:23.016Z,17.26
2023-02-14T15:34:50.016Z,17.23
2023-02-14T15:37:18.294Z,17.25
2023-02-14T15:39:47.854Z,17.22
2023-02-14T15:42:22.928Z,16.90
2023-02-14T15:44:49.929Z,16.19
2023-02-14T15:47:17.376Z,15.75
2023-02-14T15:49:46.578Z,15.38
2023-02-14T15:52:15.324Z,14.89
2023-02-14T15:54:47.372Z,14.43
2023-02-14T15:57:34.009Z,14.00
2023-02-14T16:00:00.846Z,13.71
2023-02-14T16:02:38.125Z,13.50
2023-02-14T16:05:07.319Z,13.32
2023-02-14T16:07:34.900Z,13.10
2023-02-14T16:10:19.947Z,12.97
2023-02-14T16:12:55.406Z,12.81
2023-02-14T16:15:28.074Z,12.61
2023-02-14T16:17:54.876Z,12.42
2023-02-14T16:20:22.741Z,12.23
2023-02-14T16:22:50.550Z,12.01
2023-02-14T16:25:17.510Z,11.91
2023-02-14T16:27:44.370Z,11.83
2023-02-14T16:30:17.874Z,11.75
2023-02-14T16:32:50.083Z,11.64
2023-02-14T16:35:19.761Z,11.62
2023-02-14T16:37:47.629Z,11.61
2023-02-14T16:40:15.860Z,11.53
2023-02-14T16:42:43.086Z,11.40
2023-02-14T16:45:19.156Z,11.28
2023-02-14T16:47:48.758Z,11.13
2023-02-14T16:50:15.868Z,11.01
2023-02-14T16:52:45.125Z,10.98
2023-02-14T16:55:16.346Z,10.95
2023-02-14T16:57:45.793Z,10.84
2023-02-14T17:00:12.899Z,10.76
2023-02-14T17:02:39.730Z,10.68
2023-02-14T17:05:06.791Z,10.58
2023-02-14T17:07:33.978Z,10.48
2023-02-14T17:10:05.104Z,10.36
2023-02-14T17:12:35.057Z,10.22
2023-02-14T17:15:08.340Z,10.11
2023-02-14T17:17:36.238Z,10.00
2023-02-14T17:20:04.639Z,9.88
2023-02-14T17:22:32.048Z,9.77
2023-02-14T17:24:58.912Z,9.70
2023-02-14T17:27:25.655Z,9.61
2023-02-14T17:29:52.871Z,9.49
2023-02-14T17:32:19.821Z,9.37
2023-02-14T17:34:47.024Z,9.26
2023-02-14T17:37:14.118Z,9.16
2023-02-14T17:39:40.846Z,9.10
2023-02-14T17:42:10.430Z,9.04
2023-02-14T17:44:39.074Z,8.97
2023-02-14T17:47:06.085Z,8.92
2023-02-14T17:49:32.725Z,8.87
2023-02-14T17:51:59.831Z,8.81
2023-02-14T17:54:26.515Z,8.73
2023-02-14T17:56:53.398Z,8.65
2023-02-14T17:59:20.447Z,8.57
2023-02-14T18:01:47.662Z,8.47
2023-02-14T18:04:14.395Z,8.45
2023-02-14T18:06:42.839Z,8.39
2023-02-14T18:09:10.054Z,8.29
2023-02-14T18:11:38.669Z,8.24
2023-02-14T18:14:05.337Z,8.14
2023-02-14T18:16:32.176Z,8.09
2023-02-14T18:19:01.929Z,8.05
2023-02-14T18:21:31.981Z,8.02
2023-02-14T18:24:00.152Z,7.93
2023-02-14T18:26:27.383Z,7.89
2023-02-14T18:28:55.063Z,7.82
2023-02-14T18:31:21.833Z,7.78
2023-02-14T18:33:50.162Z,7.75
2023-02-14T18:36:19.467Z,7.71
2023-02-14T18:38:47.010Z,7.70
2023-02-14T18:41:18.424Z,7.65
2023-02-14T18:43:45.159Z,7.61
2023-02-14T18:46:17.300Z,7.57
2023-02-14T18:48:44.426Z,7.53
2023-02-14T18:51:12.959Z,7.45
2023-02-14T18:53:40.556Z,7.44
2023-02-14T18:56:09.927Z,7.36
2023-02-14T18:58:36.666Z,7.36
2023-02-14T19:01:07.814Z,7.34
2023-02-14T19:03:34.759Z,7.29
2023-02-14T19:06:02.237Z,7.21
2023-02-14T19:08:36.319Z,7.14
2023-02-14T19:11:09.786Z,7.11
2023-02-14T19:13:36.422Z,7.11
2023-02-14T19:16:14.259Z,7.04
2023-02-14T19:18:41.484Z,6.99
2023-02-14T19:21:12.639Z,6.92
2023-02-14T19:23:39.512Z,6.88
2023-02-14T19:26:13.470Z,6.88
2023-02-14T19:28:41.069Z,6.85
2023-02-14T19:31:08.935Z,6.77
2023-02-14T19:33:54.389Z,6.79
2023-02-14T19:36:22.660Z,6.75
2023-02-14T19:38:50.579Z,6.68
2023-02-14T19:41:19.291Z,6.67
2023-02-14T19:43:47.631Z,6.65
2023-02-14T19:46:15.551Z,6.61
2023-02-14T19:48:44.551Z,6.58
2023-02-14T19:51:18.516Z,6.50
2023-02-14T19:53:46.654Z,6.46
2023-02-14T19:56:17.938Z,6.38
2023-02-14T19:58:45.299Z,6.34
2023-02-14T20:01:20.745Z,6.33
2023-02-14T20:03:47.741Z,6.27
2023-02-14T20:06:15.436Z,6.24
2023-02-14T20:08:42.107Z,6.26
2023-02-14T20:11:20.048Z,6.24
2023-02-14T20:13:46.970Z,6.18
2023-02-14T20:16:13.799Z,6.18
2023-02-14T20:18:40.525Z,6.22
2023-02-14T20:21:14.635Z,6.27
2023-02-14T20:23:41.395Z,6.35
2023-02-14T20:26:14.849Z,6.39
2023-02-14T20:28:43.156Z,6.41
2023-02-14T20:31:11.098Z,6.41
2023-02-14T20:33:38.910Z,6.43
2023-02-14T20:36:06.223Z,6.43
2023-02-14T20:38:33.514Z,6.42
2023-02-14T20:41:10.493Z,6.42
2023-02-14T20:43:37.672Z,6.40
2023-02-14T20:46:06.478Z,6.38
2023-02-14T20:48:34.426Z,6.38
2023-02-14T20:51:11.285Z,6.37
2023-02-14T20:53:39.205Z,6.37
2023-02-14T20:56:06.877Z,6.36
2023-02-14T20:58:35.395Z,6.36
2023-02-14T21:01:15.260Z,6.32
2023-02-14T21:03:42.994Z,6.34
2023-02-14T21:06:11.590Z,6.28
2023-02-14T21:08:38.726Z,6.30
2023-02-14T21:11:06.520Z,6.30
2023-02-14T21:13:34.098Z,6.27
2023-02-14T21:16:02.088Z,6.28
2023-02-14T21:18:29.197Z,6.31
2023-02-14T21:21:03.126Z,6.30
2023-02-14T21:23:30.078Z,6.29
2023-02-14T21:25:56.821Z,6.24
2023-02-14T21:28:23.675Z,6.18
2023-02-14T21:30:50.423Z,6.19
2023-02-14T21:33:17.133Z,6.16
2023-02-14T21:35:43.750Z,6.06
2023-02-14T21:38:10.462Z,6.00
2023-02-14T21:40:36.964Z,5.94
2023-02-14T21:43:04.011Z,5.81
2023-02-14T21:45:49.366Z,5.73
2023-02-14T21:48:34.819Z,5.72
2023-02-14T21:51:06.190Z,5.71
2023-02-14T21:53:34.144Z,5.65
2023-02-14T21:56:09.622Z,5.56
2023-02-14T21:58:37.125Z,5.55
2023-02-14T22:04:29.920Z,5.57
2023-02-14T22:06:57.122Z,5.52
2023-02-14T22:09:24.577Z,5.52
2023-02-14T22:11:51.339Z,5.48
2023-02-14T22:14:18.511Z,5.48
2023-02-14T22:16:45.584Z,5.43
2023-02-14T22:19:13.453Z,5.42
2023-02-14T22:21:40.119Z,5.42
2023-02-14T22:24:06.966Z,5.34
2023-02-14T22:26:38.514Z,5.35
2023-02-14T22:29:05.594Z,5.32
2023-02-14T22:31:33.672Z,5.32
2023-02-14T22:34:00.753Z,5.32
2023-02-14T22:36:27.506Z,5.33
2023-02-14T22:38:54.613Z,5.35
2023-02-14T22:41:22.433Z,5.28
2023-02-14T22:43:49.638Z,5.25
2023-02-14T22:46:21.139Z,5.23
2023-02-14T22:48:49.170Z,5.21
2023-02-14T22:51:28.160Z,5.20
2023-02-14T22:53:56.978Z,5.21
2023-02-14T22:56:23.904Z,5.22
2023-02-14T22:58:58.454Z,5.16
2023-02-14T23:01:26.583Z,5.16
2023-02-14T23:03:54.767Z,5.10
2023-02-14T23:06:22.512Z,5.07
2023-02-14T23:08:49.528Z,5.00
2023-02-14T23:11:17.904Z,5.01
2023-02-14T23:14:04.080Z,4.94
2023-02-14T23:16:49.388Z,4.94
2023-02-14T23:19:36.171Z,4.92
2023-02-14T23:22:10.367Z,4.93
2023-02-14T23:24:37.037Z,4.86
2023-02-14T23:27:04.522Z,4.82
2023-02-14T23:29:31.700Z,4.80
2023-02-14T23:31:58.414Z,4.82
2023-02-14T23:34:27.745Z,4.77
2023-02-14T23:36:54.790Z,4.79
2023-02-14T23:39:22.044Z,4.75
2023-02-14T23:41:49.226Z,4.73
2023-02-14T23:44:20.722Z,4.76
2023-02-14T23:46:49.670Z,4.68
2023-02-14T23:49:16.893Z,4.71
2023-02-14T23:51:45.397Z,4.66
2023-02-14T23:54:12.593Z,4.69
2023-02-14T23:56:40.141Z,4.63
2023-02-14T23:59:08.053Z,4.68
